sensor_id;sensor_type;location;lat;lon;timestamp;P1;durP1;ratioP1;P2;durP2;ratioP2
42666;SDS011;28280;49.646;14.130;2022-11-15T00:02:01;16.40;;;10.25;;
42666;SDS011;28280;49.646;14.130;2022-11-15T00:07:54;15.45;;;10.68;;
42666;SDS011;28280;49.646;14.130;2022-11-15T00:13:46;16.15;;;10.50;;
42666;SDS011;28280;49.646;14.130;2022-11-15T00:19:36;16.85;;;10.93;;
42666;SDS011;28280;49.646;14.130;2022-11-15T00:25:26;16.55;;;10.75;;
42666;SDS011;28280;49.646;14.130;2022-11-15T00:31:17;15.73;;;10.98;;
42666;SDS011;28280;49.646;14.130;2022-11-15T00:37:08;16.27;;;10.63;;
42666;SDS011;28280;49.646;14.130;2022-11-15T00:42:58;15.70;;;10.27;;
42666;SDS011;28280;49.646;14.130;2022-11-15T00:48:49;17.23;;;11.30;;
42666;SDS011;28280;49.646;14.130;2022-11-15T00:54:39;15.90;;;10.43;;
42666;SDS011;28280;49.646;14.130;2022-11-15T01:00:29;18.55;;;11.25;;
42666;SDS011;28280;49.646;14.130;2022-11-15T01:06:19;16.10;;;10.55;;
42666;SDS011;28280;49.646;14.130;2022-11-15T01:12:09;16.40;;;10.88;;
42666;SDS011;28280;49.646;14.130;2022-11-15T01:17:59;16.70;;;10.32;;
42666;SDS011;28280;49.646;14.130;2022-11-15T01:23:52;14.75;;;10.25;;
42666;SDS011;28280;49.646;14.130;2022-11-15T01:29:46;14.95;;;10.27;;
42666;SDS011;28280;49.646;14.130;2022-11-15T01:35:38;16.60;;;10.85;;
42666;SDS011;28280;49.646;14.130;2022-11-15T01:41:31;17.27;;;10.77;;
42666;SDS011;28280;49.646;14.130;2022-11-15T01:47:26;14.48;;;9.95;;
42666;SDS011;28280;49.646;14.130;2022-11-15T01:53:19;14.48;;;9.73;;
42666;SDS011;28280;49.646;14.130;2022-11-15T01:59:11;17.13;;;10.07;;
42666;SDS011;28280;49.646;14.130;2022-11-15T02:05:02;15.20;;;10.25;;
42666;SDS011;28280;49.646;14.130;2022-11-15T02:10:53;13.65;;;9.50;;
42666;SDS011;28280;49.646;14.130;2022-11-15T02:41:30;14.82;;;9.43;;
42666;SDS011;28280;49.646;14.130;2022-11-15T02:47:25;14.70;;;9.90;;
42666;SDS011;28280;49.646;14.130;2022-11-15T02:53:16;12.90;;;9.35;;
42666;SDS011;28280;49.646;14.130;2022-11-15T02:59:14;14.48;;;9.35;;
42666;SDS011;28280;49.646;14.130;2022-11-15T03:11:28;13.80;;;9.15;;
42666;SDS011;28280;49.646;14.130;2022-11-15T03:23:16;13.18;;;7.90;;
42666;SDS011;28280;49.646;14.130;2022-11-15T03:29:09;17.05;;;10.00;;
42666;SDS011;28280;49.646;14.130;2022-11-15T03:35:06;13.38;;;8.60;;
42666;SDS011;28280;49.646;14.130;2022-11-15T03:47:00;13.65;;;9.20;;
42666;SDS011;28280;49.646;14.130;2022-11-15T03:52:53;12.88;;;8.38;;
42666;SDS011;28280;49.646;14.130;2022-11-15T03:58:44;14.77;;;8.82;;
42666;SDS011;28280;49.646;14.130;2022-11-15T04:04:34;12.50;;;8.05;;
42666;SDS011;28280;49.646;14.130;2022-11-15T04:10:24;13.10;;;8.30;;
42666;SDS011;28280;49.646;14.130;2022-11-15T04:16:14;13.65;;;8.68;;
42666;SDS011;28280;49.646;14.130;2022-11-15T04:22:07;12.73;;;8.57;;
42666;SDS011;28280;49.646;14.130;2022-11-15T04:28:16;11.93;;;8.10;;
42666;SDS011;28280;49.646;14.130;2022-11-15T04:34:06;12.05;;;7.65;;
42666;SDS011;28280;49.646;14.130;2022-11-15T04:39:56;12.30;;;8.18;;
42666;SDS011;28280;49.646;14.130;2022-11-15T04:45:46;11.73;;;7.80;;
42666;SDS011;28280;49.646;14.130;2022-11-15T04:51:36;11.48;;;7.72;;
42666;SDS011;28280;49.646;14.130;2022-11-15T04:57:26;11.65;;;8.07;;
42666;SDS011;28280;49.646;14.130;2022-11-15T05:03:16;11.48;;;7.70;;
42666;SDS011;28280;49.646;14.130;2022-11-15T05:09:25;11.57;;;7.68;;
42666;SDS011;28280;49.646;14.130;2022-11-15T05:15:14;11.18;;;7.68;;
42666;SDS011;28280;49.646;14.130;2022-11-15T05:21:06;12.30;;;8.10;;
42666;SDS011;28280;49.646;14.130;2022-11-15T05:26:57;11.30;;;7.65;;
42666;SDS011;28280;49.646;14.130;2022-11-15T05:32:48;12.55;;;8.10;;
42666;SDS011;28280;49.646;14.130;2022-11-15T05:38:38;10.75;;;7.25;;
42666;SDS011;28280;49.646;14.130;2022-11-15T05:44:28;10.18;;;7.03;;
42666;SDS011;28280;49.646;14.130;2022-11-15T05:50:19;10.43;;;7.05;;
42666;SDS011;28280;49.646;14.130;2022-11-15T05:56:09;11.35;;;7.50;;
42666;SDS011;28280;49.646;14.130;2022-11-15T06:01:59;11.10;;;7.38;;
42666;SDS011;28280;49.646;14.130;2022-11-15T06:07:49;11.75;;;7.25;;
42666;SDS011;28280;49.646;14.130;2022-11-15T06:13:40;10.68;;;7.45;;
42666;SDS011;28280;49.646;14.130;2022-11-15T06:19:30;10.07;;;6.53;;
42666;SDS011;28280;49.646;14.130;2022-11-15T06:25:22;10.18;;;6.88;;
42666;SDS011;28280;49.646;14.130;2022-11-15T06:31:13;10.15;;;6.68;;
42666;SDS011;28280;49.646;14.130;2022-11-15T06:37:03;9.70;;;6.72;;
42666;SDS011;28280;49.646;14.130;2022-11-15T06:42:57;8.80;;;5.82;;
42666;SDS011;28280;49.646;14.130;2022-11-15T06:48:52;7.47;;;5.88;;
42666;SDS011;28280;49.646;14.130;2022-11-15T06:54:43;7.47;;;5.63;;
42666;SDS011;28280;49.646;14.130;2022-11-15T07:00:33;7.35;;;5.28;;
42666;SDS011;28280;49.646;14.130;2022-11-15T07:06:23;8.68;;;5.75;;
42666;SDS011;28280;49.646;14.130;2022-11-15T07:12:13;7.57;;;5.15;;
42666;SDS011;28280;49.646;14.130;2022-11-15T07:18:03;6.60;;;5.43;;
42666;SDS011;28280;49.646;14.130;2022-11-15T07:23:54;8.63;;;5.93;;
42666;SDS011;28280;49.646;14.130;2022-11-15T07:29:44;8.30;;;5.43;;
42666;SDS011;28280;49.646;14.130;2022-11-15T07:35:34;7.00;;;5.10;;
42666;SDS011;28280;49.646;14.130;2022-11-15T07:41:24;6.93;;;5.25;;
42666;SDS011;28280;49.646;14.130;2022-11-15T07:47:15;8.40;;;5.80;;
42666;SDS011;28280;49.646;14.130;2022-11-15T07:53:05;7.00;;;5.25;;
42666;SDS011;28280;49.646;14.130;2022-11-15T07:58:55;6.85;;;4.88;;
42666;SDS011;28280;49.646;14.130;2022-11-15T08:04:45;6.25;;;4.65;;
42666;SDS011;28280;49.646;14.130;2022-11-15T08:10:36;6.22;;;4.70;;
42666;SDS011;28280;49.646;14.130;2022-11-15T08:16:29;6.15;;;4.60;;
42666;SDS011;28280;49.646;14.130;2022-11-15T08:22:19;5.63;;;4.70;;
42666;SDS011;28280;49.646;14.130;2022-11-15T08:28:09;5.60;;;4.35;;
42666;SDS011;28280;49.646;14.130;2022-11-15T08:34:00;5.50;;;4.18;;
42666;SDS011;28280;49.646;14.130;2022-11-15T08:39:50;6.13;;;4.15;;
42666;SDS011;28280;49.646;14.130;2022-11-15T08:45:40;6.22;;;4.80;;
42666;SDS011;28280;49.646;14.130;2022-11-15T08:51:30;5.47;;;4.32;;
42666;SDS011;28280;49.646;14.130;2022-11-15T08:57:20;6.32;;;4.55;;
42666;SDS011;28280;49.646;14.130;2022-11-15T09:03:10;5.82;;;4.03;;
42666;SDS011;28280;49.646;14.130;2022-11-15T09:09:01;5.95;;;4.43;;
42666;SDS011;28280;49.646;14.130;2022-11-15T09:14:51;5.43;;;3.97;;
42666;SDS011;28280;49.646;14.130;2022-11-15T09:20:42;6.03;;;4.25;;
42666;SDS011;28280;49.646;14.130;2022-11-15T09:26:32;5.97;;;4.38;;
42666;SDS011;28280;49.646;14.130;2022-11-15T09:32:22;6.80;;;4.50;;
42666;SDS011;28280;49.646;14.130;2022-11-15T09:38:13;5.00;;;4.07;;
42666;SDS011;28280;49.646;14.130;2022-11-15T09:49:54;5.13;;;4.00;;
42666;SDS011;28280;49.646;14.130;2022-11-15T09:55:39;6.47;;;4.13;;
42666;SDS011;28280;49.646;14.130;2022-11-15T10:07:15;5.03;;;3.87;;
42666;SDS011;28280;49.646;14.130;2022-11-15T10:12:49;5.22;;;3.97;;
42666;SDS011;28280;49.646;14.130;2022-11-15T10:18:27;6.15;;;4.40;;
42666;SDS011;28280;49.646;14.130;2022-11-15T10:24:13;5.97;;;4.32;;
42666;SDS011;28280;49.646;14.130;2022-11-15T10:29:50;5.10;;;3.72;;
42666;SDS011;28280;49.646;14.130;2022-11-15T10:40:55;5.37;;;4.00;;
42666;SDS011;28280;49.646;14.130;2022-11-15T10:46:38;5.03;;;3.78;;
42666;SDS011;28280;49.646;14.130;2022-11-15T10:52:19;4.70;;;3.85;;
42666;SDS011;28280;49.646;14.130;2022-11-15T10:57:52;5.35;;;4.18;;
42666;SDS011;28280;49.646;14.130;2022-11-15T11:03:35;5.18;;;3.92;;
42666;SDS011;28280;49.646;14.130;2022-11-15T11:09:18;6.45;;;4.18;;
42666;SDS011;28280;49.646;14.130;2022-11-15T11:15:01;5.70;;;3.90;;
42666;SDS011;28280;49.646;14.130;2022-11-15T11:20:41;5.65;;;4.22;;
42666;SDS011;28280;49.646;14.130;2022-11-15T11:49:31;4.68;;;4.07;;
42666;SDS011;28280;49.646;14.130;2022-11-15T12:00:46;4.43;;;3.72;;
42666;SDS011;28280;49.646;14.130;2022-11-15T12:06:27;6.97;;;4.28;;
42666;SDS011;28280;49.646;14.130;2022-11-15T12:17:55;6.32;;;4.10;;
42666;SDS011;28280;49.646;14.130;2022-11-15T12:23:27;5.82;;;4.25;;
42666;SDS011;28280;49.646;14.130;2022-11-15T12:29:03;4.22;;;3.75;;
42666;SDS011;28280;49.646;14.130;2022-11-15T12:34:42;5.20;;;4.05;;
42666;SDS011;28280;49.646;14.130;2022-11-15T12:45:50;5.25;;;3.78;;
42666;SDS011;28280;49.646;14.130;2022-11-15T12:57:31;5.18;;;4.35;;
42666;SDS011;28280;49.646;14.130;2022-11-15T13:09:49;6.32;;;4.30;;
42666;SDS011;28280;49.646;14.130;2022-11-15T13:20:44;5.97;;;4.43;;
42666;SDS011;28280;49.646;14.130;2022-11-15T13:26:16;6.28;;;4.32;;
42666;SDS011;28280;49.646;14.130;2022-11-15T13:31:48;6.57;;;4.03;;
42666;SDS011;28280;49.646;14.130;2022-11-15T13:42:51;5.55;;;3.97;;
42666;SDS011;28280;49.646;14.130;2022-11-15T13:48:22;5.68;;;4.68;;
42666;SDS011;28280;49.646;14.130;2022-11-15T13:53:58;5.93;;;4.22;;
42666;SDS011;28280;49.646;14.130;2022-11-15T13:59:45;5.18;;;4.25;;
42666;SDS011;28280;49.646;14.130;2022-11-15T14:05:21;5.43;;;4.13;;
42666;SDS011;28280;49.646;14.130;2022-11-15T14:11:08;5.47;;;4.03;;
42666;SDS011;28280;49.646;14.130;2022-11-15T14:16:46;6.00;;;4.35;;
42666;SDS011;28280;49.646;14.130;2022-11-15T14:22:32;6.63;;;4.82;;
42666;SDS011;28280;49.646;14.130;2022-11-15T14:28:08;6.55;;;4.90;;
42666;SDS011;28280;49.646;14.130;2022-11-15T14:33:41;5.63;;;4.30;;
42666;SDS011;28280;49.646;14.130;2022-11-15T14:39:12;6.47;;;4.38;;
42666;SDS011;28280;49.646;14.130;2022-11-15T14:44:43;4.90;;;3.88;;
42666;SDS011;28280;49.646;14.130;2022-11-15T14:50:17;5.93;;;4.28;;
42666;SDS011;28280;49.646;14.130;2022-11-15T14:55:49;5.40;;;4.32;;
42666;SDS011;28280;49.646;14.130;2022-11-15T15:01:23;6.75;;;4.78;;
42666;SDS011;28280;49.646;14.130;2022-11-15T15:06:56;5.38;;;4.13;;
42666;SDS011;28280;49.646;14.130;2022-11-15T15:12:27;6.00;;;4.63;;
42666;SDS011;28280;49.646;14.130;2022-11-15T15:18:00;6.00;;;4.13;;
42666;SDS011;28280;49.646;14.130;2022-11-15T15:23:31;6.57;;;4.55;;
42666;SDS011;28280;49.646;14.130;2022-11-15T15:29:03;5.63;;;4.43;;
42666;SDS011;28280;49.646;14.130;2022-11-15T15:34:34;5.47;;;4.00;;
42666;SDS011;28280;49.646;14.130;2022-11-15T15:40:13;5.20;;;4.07;;
42666;SDS011;28280;49.646;14.130;2022-11-15T15:45:49;5.33;;;4.13;;
42666;SDS011;28280;49.646;14.130;2022-11-15T15:51:20;6.57;;;4.07;;
42666;SDS011;28280;49.646;14.130;2022-11-15T15:56:51;4.90;;;4.03;;
42666;SDS011;28280;49.646;14.130;2022-11-15T16:02:25;5.72;;;4.63;;
42666;SDS011;28280;49.646;14.130;2022-11-15T16:07:57;5.18;;;4.00;;
42666;SDS011;28280;49.646;14.130;2022-11-15T16:13:28;5.68;;;4.00;;
42666;SDS011;28280;49.646;14.130;2022-11-15T16:18:59;4.65;;;3.90;;
42666;SDS011;28280;49.646;14.130;2022-11-15T16:24:31;5.07;;;4.07;;
42666;SDS011;28280;49.646;14.130;2022-11-15T16:30:03;6.15;;;4.30;;
42666;SDS011;28280;49.646;14.130;2022-11-15T16:35:35;6.07;;;4.30;;
42666;SDS011;28280;49.646;14.130;2022-11-15T16:41:06;6.50;;;4.20;;
42666;SDS011;28280;49.646;14.130;2022-11-15T16:46:37;6.22;;;3.97;;
42666;SDS011;28280;49.646;14.130;2022-11-15T16:52:12;5.47;;;4.38;;
42666;SDS011;28280;49.646;14.130;2022-11-15T16:57:51;5.75;;;4.43;;
42666;SDS011;28280;49.646;14.130;2022-11-15T17:03:22;5.93;;;4.38;;
42666;SDS011;28280;49.646;14.130;2022-11-15T17:08:54;6.15;;;4.32;;
42666;SDS011;28280;49.646;14.130;2022-11-15T17:14:26;5.93;;;4.03;;
42666;SDS011;28280;49.646;14.130;2022-11-15T17:19:57;5.07;;;4.20;;
42666;SDS011;28280;49.646;14.130;2022-11-15T17:25:28;5.20;;;4.15;;
42666;SDS011;28280;49.646;14.130;2022-11-15T17:30:59;5.95;;;4.07;;
42666;SDS011;28280;49.646;14.130;2022-11-15T17:36:31;6.32;;;4.55;;
42666;SDS011;28280;49.646;14.130;2022-11-15T17:42:02;5.90;;;4.10;;
42666;SDS011;28280;49.646;14.130;2022-11-15T17:47:34;5.57;;;4.40;;
42666;SDS011;28280;49.646;14.130;2022-11-15T17:53:05;6.97;;;4.70;;
42666;SDS011;28280;49.646;14.130;2022-11-15T17:58:36;6.07;;;3.92;;
42666;SDS011;28280;49.646;14.130;2022-11-15T18:04:07;4.90;;;4.00;;
42666;SDS011;28280;49.646;14.130;2022-11-15T18:09:39;6.10;;;4.13;;
42666;SDS011;28280;49.646;14.130;2022-11-15T18:15:13;5.47;;;4.10;;
42666;SDS011;28280;49.646;14.130;2022-11-15T18:20:45;5.43;;;4.43;;
42666;SDS011;28280;49.646;14.130;2022-11-15T18:26:16;5.25;;;3.83;;
42666;SDS011;28280;49.646;14.130;2022-11-15T18:31:53;5.18;;;4.13;;
42666;SDS011;28280;49.646;14.130;2022-11-15T18:37:27;5.20;;;4.18;;
42666;SDS011;28280;49.646;14.130;2022-11-15T18:42:58;5.78;;;4.35;;
42666;SDS011;28280;49.646;14.130;2022-11-15T18:48:30;6.35;;;4.43;;
42666;SDS011;28280;49.646;14.130;2022-11-15T18:54:02;6.30;;;4.18;;
42666;SDS011;28280;49.646;14.130;2022-11-15T18:59:34;6.78;;;4.63;;
42666;SDS011;28280;49.646;14.130;2022-11-15T19:05:05;5.40;;;4.18;;
42666;SDS011;28280;49.646;14.130;2022-11-15T19:10:36;5.75;;;3.95;;
42666;SDS011;28280;49.646;14.130;2022-11-15T19:16:08;5.15;;;4.07;;
42666;SDS011;28280;49.646;14.130;2022-11-15T19:21:41;6.15;;;4.15;;
42666;SDS011;28280;49.646;14.130;2022-11-15T19:27:12;6.57;;;4.15;;
42666;SDS011;28280;49.646;14.130;2022-11-15T19:32:43;5.05;;;3.78;;
42666;SDS011;28280;49.646;14.130;2022-11-15T19:38:15;7.35;;;4.88;;
42666;SDS011;28280;49.646;14.130;2022-11-15T19:43:46;5.82;;;4.00;;
42666;SDS011;28280;49.646;14.130;2022-11-15T19:49:17;5.93;;;4.43;;
42666;SDS011;28280;49.646;14.130;2022-11-15T19:54:49;6.15;;;4.85;;
42666;SDS011;28280;49.646;14.130;2022-11-15T20:00:20;7.15;;;4.80;;
42666;SDS011;28280;49.646;14.130;2022-11-15T20:05:51;5.78;;;4.30;;
42666;SDS011;28280;49.646;14.130;2022-11-15T20:11:22;7.03;;;4.40;;
42666;SDS011;28280;49.646;14.130;2022-11-15T20:16:55;6.13;;;4.15;;
42666;SDS011;28280;49.646;14.130;2022-11-15T20:22:26;7.50;;;4.28;;
42666;SDS011;28280;49.646;14.130;2022-11-15T20:27:57;6.00;;;4.40;;
42666;SDS011;28280;49.646;14.130;2022-11-15T20:33:29;6.60;;;4.43;;
42666;SDS011;28280;49.646;14.130;2022-11-15T20:39:00;7.18;;;4.75;;
42666;SDS011;28280;49.646;14.130;2022-11-15T20:44:31;6.88;;;4.40;;
42666;SDS011;28280;49.646;14.130;2022-11-15T20:50:02;7.25;;;5.05;;
42666;SDS011;28280;49.646;14.130;2022-11-15T20:55:54;6.50;;;4.68;;
42666;SDS011;28280;49.646;14.130;2022-11-15T21:01:25;8.35;;;5.22;;
42666;SDS011;28280;49.646;14.130;2022-11-15T21:06:57;7.30;;;4.35;;
42666;SDS011;28280;49.646;14.130;2022-11-15T21:12:29;8.65;;;5.13;;
42666;SDS011;28280;49.646;14.130;2022-11-15T21:18:02;7.53;;;5.00;;
42666;SDS011;28280;49.646;14.130;2022-11-15T21:23:33;6.47;;;4.50;;
42666;SDS011;28280;49.646;14.130;2022-11-15T21:29:04;6.75;;;4.97;;
42666;SDS011;28280;49.646;14.130;2022-11-15T21:34:35;8.07;;;5.13;;
42666;SDS011;28280;49.646;14.130;2022-11-15T21:40:07;8.15;;;5.20;;
42666;SDS011;28280;49.646;14.130;2022-11-15T21:45:39;7.18;;;5.43;;
42666;SDS011;28280;49.646;14.130;2022-11-15T21:51:10;8.15;;;5.30;;
42666;SDS011;28280;49.646;14.130;2022-11-15T21:56:41;7.43;;;5.03;;
42666;SDS011;28280;49.646;14.130;2022-11-15T22:02:14;8.18;;;4.93;;
42666;SDS011;28280;49.646;14.130;2022-11-15T22:07:45;7.50;;;5.10;;
42666;SDS011;28280;49.646;14.130;2022-11-15T22:13:16;7.05;;;4.82;;
42666;SDS011;28280;49.646;14.130;2022-11-15T22:18:48;8.75;;;5.72;;
42666;SDS011;28280;49.646;14.130;2022-11-15T22:24:19;8.98;;;5.63;;
42666;SDS011;28280;49.646;14.130;2022-11-15T22:29:52;7.00;;;4.90;;
42666;SDS011;28280;49.646;14.130;2022-11-15T22:35:23;7.53;;;4.95;;
42666;SDS011;28280;49.646;14.130;2022-11-15T22:40:55;7.70;;;5.25;;
42666;SDS011;28280;49.646;14.130;2022-11-15T22:46:26;8.38;;;5.68;;
42666;SDS011;28280;49.646;14.130;2022-11-15T22:52:00;6.50;;;4.22;;
42666;SDS011;28280;49.646;14.130;2022-11-15T22:57:31;7.30;;;4.95;;
42666;SDS011;28280;49.646;14.130;2022-11-15T23:03:03;7.40;;;5.78;;
42666;SDS011;28280;49.646;14.130;2022-11-15T23:08:34;7.70;;;4.82;;
42666;SDS011;28280;49.646;14.130;2022-11-15T23:14:07;9.05;;;5.53;;
42666;SDS011;28280;49.646;14.130;2022-11-15T23:19:38;6.45;;;4.75;;
42666;SDS011;28280;49.646;14.130;2022-11-15T23:25:09;6.45;;;4.70;;
42666;SDS011;28280;49.646;14.130;2022-11-15T23:30:41;8.48;;;5.05;;
42666;SDS011;28280;49.646;14.130;2022-11-15T23:36:31;7.40;;;4.95;;
42666;SDS011;28280;49.646;14.130;2022-11-15T23:42:02;5.95;;;4.43;;
42666;SDS011;28280;49.646;14.130;2022-11-15T23:47:39;7.80;;;5.13;;
42666;SDS011;28280;49.646;14.130;2022-11-15T23:53:10;7.05;;;4.72;;
42666;SDS011;28280;49.646;14.130;2022-11-15T23:58:42;7.28;;;5.07;;
